עמוד ראשי
METAR-TAF:

METAR-TAF

שדות תעופה :

Camiri, בוליביה

קו רוחב: 20-00S, קו אורך: 063-32W, גובה: 798מטר

תצפית מזג אוויר נוכחית

הדו"ח נערך לפני 4 שעות ו 31דקות, בשעה 22:00 UTC
רוח 4קשר מכיוון צפון
טמפרטורת 31 צלסיוס
לחות 43%
לחץ 1004 hPa
ראות 10 קילומטר או יותר

METAR: SLCA 132200Z 36004KT 9999 NSC 31/17 Q1004

זמן: 22:31 (02:31 UTC)


TAF: חסר

תצפיות ותחזיות מזג אוויר לגבי יותר מ- 4,000 שדות תעופה ברחבי העולם. דוחות METAR ו- TAF.

התחנות הזמינות מסומנות בנקודות צהובות ואדומות על גבי המפה.

העבר את העכבר לנקודה הצבעונית על מנת לראות את שם התחנה.

לאחר מכן, לחץ כדי לראות את תוכן ואת תחזיות מזג האוויר.

כדי לשנות את המפה: לחץ על הכפתורים הירוקים עם הפלוס השחור כדי להתקרב; על הכפתור הירוק עם המקף כדי להתרחק; או בחיצים הירוקים למפות סמוכות.


METAR-TAF: